sensor_id;sensor_type;location;lat;lon;timestamp;P1;durP1;ratioP1;P2;durP2;ratioP2
46835;SDS011;32573;51.290;6.926;2022-08-19T00:01:36;5.97;;;3.35;;
46835;SDS011;32573;51.290;6.926;2022-08-19T00:04:07;5.88;;;4.00;;
46835;SDS011;32573;51.290;6.926;2022-08-19T00:06:39;5.15;;;3.63;;
46835;SDS011;32573;51.290;6.926;2022-08-19T00:09:10;6.28;;;3.33;;
46835;SDS011;32573;51.290;6.926;2022-08-19T00:11:40;5.90;;;3.65;;
46835;SDS011;32573;51.290;6.926;2022-08-19T00:14:11;6.07;;;3.58;;
46835;SDS011;32573;51.290;6.926;2022-08-19T00:16:44;6.35;;;3.70;;
46835;SDS011;32573;51.290;6.926;2022-08-19T00:19:15;5.40;;;3.67;;
46835;SDS011;32573;51.290;6.926;2022-08-19T00:21:44;6.78;;;3.92;;
46835;SDS011;32573;51.290;6.926;2022-08-19T00:24:13;4.93;;;3.30;;
46835;SDS011;32573;51.290;6.926;2022-08-19T00:26:43;5.97;;;3.53;;
46835;SDS011;32573;51.290;6.926;2022-08-19T00:29:14;5.72;;;3.38;;
46835;SDS011;32573;51.290;6.926;2022-08-19T00:31:45;5.47;;;3.25;;
46835;SDS011;32573;51.290;6.926;2022-08-19T00:34:19;5.82;;;3.60;;
46835;SDS011;32573;51.290;6.926;2022-08-19T00:36:49;5.53;;;3.47;;
46835;SDS011;32573;51.290;6.926;2022-08-19T00:39:17;5.30;;;3.15;;
46835;SDS011;32573;51.290;6.926;2022-08-19T00:41:46;5.18;;;3.10;;
46835;SDS011;32573;51.290;6.926;2022-08-19T00:44:18;4.63;;;3.13;;
46835;SDS011;32573;51.290;6.926;2022-08-19T00:46:55;5.55;;;3.55;;
46835;SDS011;32573;51.290;6.926;2022-08-19T00:49:27;5.25;;;3.33;;
46835;SDS011;32573;51.290;6.926;2022-08-19T00:52:00;5.28;;;3.40;;
46835;SDS011;32573;51.290;6.926;2022-08-19T00:54:31;5.40;;;3.28;;
46835;SDS011;32573;51.290;6.926;2022-08-19T00:57:01;5.50;;;3.60;;
46835;SDS011;32573;51.290;6.926;2022-08-19T00:59:33;5.40;;;3.50;;
46835;SDS011;32573;51.290;6.926;2022-08-19T01:02:25;5.22;;;3.47;;
46835;SDS011;32573;51.290;6.926;2022-08-19T01:04:55;5.07;;;3.40;;
46835;SDS011;32573;51.290;6.926;2022-08-19T01:07:24;5.25;;;3.42;;
46835;SDS011;32573;51.290;6.926;2022-08-19T01:09:53;5.68;;;3.45;;
46835;SDS011;32573;51.290;6.926;2022-08-19T01:12:21;5.40;;;3.58;;
46835;SDS011;32573;51.290;6.926;2022-08-19T01:14:50;5.65;;;3.30;;
46835;SDS011;32573;51.290;6.926;2022-08-19T01:17:20;5.20;;;3.35;;
46835;SDS011;32573;51.290;6.926;2022-08-19T01:19:50;6.13;;;3.90;;
46835;SDS011;32573;51.290;6.926;2022-08-19T01:22:20;5.78;;;3.55;;
46835;SDS011;32573;51.290;6.926;2022-08-19T01:24:59;6.30;;;3.63;;
46835;SDS011;32573;51.290;6.926;2022-08-19T01:27:36;5.60;;;3.70;;
46835;SDS011;32573;51.290;6.926;2022-08-19T01:30:11;6.70;;;3.70;;
46835;SDS011;32573;51.290;6.926;2022-08-19T01:32:41;6.15;;;3.75;;
46835;SDS011;32573;51.290;6.926;2022-08-19T01:35:10;5.95;;;3.85;;
46835;SDS011;32573;51.290;6.926;2022-08-19T01:37:46;5.30;;;3.50;;
46835;SDS011;32573;51.290;6.926;2022-08-19T01:40:17;5.07;;;3.42;;
46835;SDS011;32573;51.290;6.926;2022-08-19T01:42:47;5.47;;;3.17;;
46835;SDS011;32573;51.290;6.926;2022-08-19T01:45:15;4.32;;;2.95;;
46835;SDS011;32573;51.290;6.926;2022-08-19T01:47:45;5.00;;;3.20;;
46835;SDS011;32573;51.290;6.926;2022-08-19T01:50:27;6.60;;;3.60;;
46835;SDS011;32573;51.290;6.926;2022-08-19T01:52:57;5.97;;;3.65;;
46835;SDS011;32573;51.290;6.926;2022-08-19T01:55:29;5.03;;;3.58;;
46835;SDS011;32573;51.290;6.926;2022-08-19T01:57:59;5.40;;;3.58;;
46835;SDS011;32573;51.290;6.926;2022-08-19T02:00:30;4.55;;;3.13;;
46835;SDS011;32573;51.290;6.926;2022-08-19T02:02:59;5.72;;;3.75;;
46835;SDS011;32573;51.290;6.926;2022-08-19T02:05:28;5.85;;;3.78;;
46835;SDS011;32573;51.290;6.926;2022-08-19T02:07:58;5.97;;;3.75;;
46835;SDS011;32573;51.290;6.926;2022-08-19T02:10:26;5.72;;;3.42;;
46835;SDS011;32573;51.290;6.926;2022-08-19T02:12:55;5.50;;;3.60;;
46835;SDS011;32573;51.290;6.926;2022-08-19T02:15:23;5.43;;;3.55;;
46835;SDS011;32573;51.290;6.926;2022-08-19T02:17:52;5.50;;;3.13;;
46835;SDS011;32573;51.290;6.926;2022-08-19T02:20:20;5.70;;;3.35;;
46835;SDS011;32573;51.290;6.926;2022-08-19T02:22:49;5.75;;;3.45;;
46835;SDS011;32573;51.290;6.926;2022-08-19T02:25:19;5.03;;;3.17;;
46835;SDS011;32573;51.290;6.926;2022-08-19T02:27:47;4.88;;;3.17;;
46835;SDS011;32573;51.290;6.926;2022-08-19T02:30:16;5.88;;;3.60;;
46835;SDS011;32573;51.290;6.926;2022-08-19T02:32:45;6.93;;;3.97;;
46835;SDS011;32573;51.290;6.926;2022-08-19T02:35:14;4.88;;;3.10;;
46835;SDS011;32573;51.290;6.926;2022-08-19T02:37:42;5.32;;;3.70;;
46835;SDS011;32573;51.290;6.926;2022-08-19T02:40:30;6.57;;;3.67;;
46835;SDS011;32573;51.290;6.926;2022-08-19T02:43:00;5.57;;;3.80;;
46835;SDS011;32573;51.290;6.926;2022-08-19T02:45:31;5.85;;;3.97;;
46835;SDS011;32573;51.290;6.926;2022-08-19T02:47:59;5.28;;;3.28;;
46835;SDS011;32573;51.290;6.926;2022-08-19T02:50:31;5.38;;;3.33;;
46835;SDS011;32573;51.290;6.926;2022-08-19T02:53:00;6.68;;;3.97;;
46835;SDS011;32573;51.290;6.926;2022-08-19T02:55:29;5.60;;;3.60;;
46835;SDS011;32573;51.290;6.926;2022-08-19T02:58:11;5.30;;;3.20;;
46835;SDS011;32573;51.290;6.926;2022-08-19T03:00:41;5.10;;;3.55;;
46835;SDS011;32573;51.290;6.926;2022-08-19T03:03:11;7.20;;;3.38;;
46835;SDS011;32573;51.290;6.926;2022-08-19T03:05:40;5.72;;;3.38;;
46835;SDS011;32573;51.290;6.926;2022-08-19T03:08:22;6.70;;;4.00;;
46835;SDS011;32573;51.290;6.926;2022-08-19T03:10:53;5.40;;;3.38;;
46835;SDS011;32573;51.290;6.926;2022-08-19T03:13:22;5.72;;;3.80;;
46835;SDS011;32573;51.290;6.926;2022-08-19T03:15:51;6.00;;;3.38;;
46835;SDS011;32573;51.290;6.926;2022-08-19T03:18:19;5.38;;;3.50;;
46835;SDS011;32573;51.290;6.926;2022-08-19T03:20:49;5.53;;;3.50;;
46835;SDS011;32573;51.290;6.926;2022-08-19T03:23:21;6.13;;;3.58;;
46835;SDS011;32573;51.290;6.926;2022-08-19T03:25:52;5.47;;;3.75;;
46835;SDS011;32573;51.290;6.926;2022-08-19T03:28:31;5.82;;;3.50;;
46835;SDS011;32573;51.290;6.926;2022-08-19T03:31:03;5.60;;;3.67;;
46835;SDS011;32573;51.290;6.926;2022-08-19T03:33:54;6.82;;;3.58;;
46835;SDS011;32573;51.290;6.926;2022-08-19T03:36:23;6.43;;;4.10;;
46835;SDS011;32573;51.290;6.926;2022-08-19T03:38:56;6.35;;;3.58;;
46835;SDS011;32573;51.290;6.926;2022-08-19T03:41:28;5.57;;;3.53;;
46835;SDS011;32573;51.290;6.926;2022-08-19T03:44:11;6.45;;;3.25;;
46835;SDS011;32573;51.290;6.926;2022-08-19T03:46:44;5.80;;;3.65;;
46835;SDS011;32573;51.290;6.926;2022-08-19T03:49:13;5.28;;;3.42;;
46835;SDS011;32573;51.290;6.926;2022-08-19T03:51:45;5.35;;;3.58;;
46835;SDS011;32573;51.290;6.926;2022-08-19T03:54:15;6.55;;;3.85;;
46835;SDS011;32573;51.290;6.926;2022-08-19T03:56:47;6.47;;;4.32;;
46835;SDS011;32573;51.290;6.926;2022-08-19T03:59:17;6.05;;;3.80;;
46835;SDS011;32573;51.290;6.926;2022-08-19T04:01:47;6.53;;;4.07;;
46835;SDS011;32573;51.290;6.926;2022-08-19T04:04:15;6.13;;;3.85;;
46835;SDS011;32573;51.290;6.926;2022-08-19T04:06:45;6.30;;;4.22;;
46835;SDS011;32573;51.290;6.926;2022-08-19T04:09:14;6.15;;;3.85;;
46835;SDS011;32573;51.290;6.926;2022-08-19T04:11:44;7.07;;;4.43;;
46835;SDS011;32573;51.290;6.926;2022-08-19T04:14:16;7.50;;;4.70;;
46835;SDS011;32573;51.290;6.926;2022-08-19T04:16:45;8.18;;;4.55;;
46835;SDS011;32573;51.290;6.926;2022-08-19T04:19:15;7.43;;;4.45;;
46835;SDS011;32573;51.290;6.926;2022-08-19T04:21:47;7.13;;;4.30;;
46835;SDS011;32573;51.290;6.926;2022-08-19T04:24:17;7.63;;;4.80;;
46835;SDS011;32573;51.290;6.926;2022-08-19T04:26:48;6.60;;;4.45;;
46835;SDS011;32573;51.290;6.926;2022-08-19T04:29:17;7.03;;;4.43;;
46835;SDS011;32573;51.290;6.926;2022-08-19T04:31:49;7.05;;;4.40;;
46835;SDS011;32573;51.290;6.926;2022-08-19T04:34:18;6.53;;;4.38;;
46835;SDS011;32573;51.290;6.926;2022-08-19T04:36:49;6.25;;;4.28;;
46835;SDS011;32573;51.290;6.926;2022-08-19T04:39:20;6.63;;;4.25;;
46835;SDS011;32573;51.290;6.926;2022-08-19T04:42:12;8.13;;;5.03;;
46835;SDS011;32573;51.290;6.926;2022-08-19T04:44:58;8.50;;;4.90;;
46835;SDS011;32573;51.290;6.926;2022-08-19T04:47:31;7.05;;;4.55;;
46835;SDS011;32573;51.290;6.926;2022-08-19T04:50:19;7.10;;;4.38;;
46835;SDS011;32573;51.290;6.926;2022-08-19T04:52:50;7.35;;;4.70;;
46835;SDS011;32573;51.290;6.926;2022-08-19T04:55:19;7.40;;;4.57;;
46835;SDS011;32573;51.290;6.926;2022-08-19T04:57:49;7.07;;;4.28;;
46835;SDS011;32573;51.290;6.926;2022-08-19T05:00:17;6.63;;;4.28;;
46835;SDS011;32573;51.290;6.926;2022-08-19T05:02:45;7.65;;;4.80;;
46835;SDS011;32573;51.290;6.926;2022-08-19T05:05:16;7.53;;;4.70;;
46835;SDS011;32573;51.290;6.926;2022-08-19T05:07:45;7.88;;;4.78;;
46835;SDS011;32573;51.290;6.926;2022-08-19T05:10:13;8.65;;;4.97;;
46835;SDS011;32573;51.290;6.926;2022-08-19T05:12:41;7.55;;;4.88;;
46835;SDS011;32573;51.290;6.926;2022-08-19T05:15:11;7.68;;;5.13;;
46835;SDS011;32573;51.290;6.926;2022-08-19T05:17:40;8.02;;;5.32;;
46835;SDS011;32573;51.290;6.926;2022-08-19T05:20:28;7.72;;;4.57;;
46835;SDS011;32573;51.290;6.926;2022-08-19T05:23:15;8.40;;;5.28;;
46835;SDS011;32573;51.290;6.926;2022-08-19T05:25:48;8.05;;;5.60;;
46835;SDS011;32573;51.290;6.926;2022-08-19T05:28:18;8.30;;;5.38;;
46835;SDS011;32573;51.290;6.926;2022-08-19T05:30:49;8.60;;;5.70;;
46835;SDS011;32573;51.290;6.926;2022-08-19T05:33:18;7.72;;;5.32;;
46835;SDS011;32573;51.290;6.926;2022-08-19T05:35:46;10.45;;;6.30;;
46835;SDS011;32573;51.290;6.926;2022-08-19T05:38:16;10.25;;;6.28;;
46835;SDS011;32573;51.290;6.926;2022-08-19T05:40:45;9.20;;;6.03;;
46835;SDS011;32573;51.290;6.926;2022-08-19T05:43:13;9.70;;;6.28;;
46835;SDS011;32573;51.290;6.926;2022-08-19T05:45:43;8.80;;;5.72;;
46835;SDS011;32573;51.290;6.926;2022-08-19T05:48:13;9.55;;;5.95;;
46835;SDS011;32573;51.290;6.926;2022-08-19T05:50:47;9.07;;;5.95;;
46835;SDS011;32573;51.290;6.926;2022-08-19T05:53:17;8.45;;;5.57;;
46835;SDS011;32573;51.290;6.926;2022-08-19T05:55:45;9.30;;;5.93;;
46835;SDS011;32573;51.290;6.926;2022-08-19T05:58:14;9.68;;;6.30;;
46835;SDS011;32573;51.290;6.926;2022-08-19T06:00:43;9.02;;;5.88;;
46835;SDS011;32573;51.290;6.926;2022-08-19T06:03:13;8.82;;;6.10;;
46835;SDS011;32573;51.290;6.926;2022-08-19T06:05:42;9.85;;;6.95;;
46835;SDS011;32573;51.290;6.926;2022-08-19T06:08:18;12.48;;;8.25;;
46835;SDS011;32573;51.290;6.926;2022-08-19T06:11:17;13.77;;;9.15;;
46835;SDS011;32573;51.290;6.926;2022-08-19T06:13:48;13.85;;;9.88;;
46835;SDS011;32573;51.290;6.926;2022-08-19T06:16:26;14.23;;;9.52;;
46835;SDS011;32573;51.290;6.926;2022-08-19T06:18:59;12.80;;;8.90;;
46835;SDS011;32573;51.290;6.926;2022-08-19T06:21:29;13.93;;;8.68;;
46835;SDS011;32573;51.290;6.926;2022-08-19T06:23:58;16.02;;;10.55;;
46835;SDS011;32573;51.290;6.926;2022-08-19T06:26:27;17.15;;;10.13;;
46835;SDS011;32573;51.290;6.926;2022-08-19T06:28:55;17.90;;;10.77;;
46835;SDS011;32573;51.290;6.926;2022-08-19T06:31:25;15.57;;;10.75;;
46835;SDS011;32573;51.290;6.926;2022-08-19T06:33:55;18.48;;;12.02;;
46835;SDS011;32573;51.290;6.926;2022-08-19T06:36:26;21.45;;;13.15;;
46835;SDS011;32573;51.290;6.926;2022-08-19T06:39:01;23.15;;;14.95;;
46835;SDS011;32573;51.290;6.926;2022-08-19T06:41:34;23.23;;;15.05;;
46835;SDS011;32573;51.290;6.926;2022-08-19T06:44:16;25.70;;;14.05;;
46835;SDS011;32573;51.290;6.926;2022-08-19T06:46:46;22.48;;;14.60;;
46835;SDS011;32573;51.290;6.926;2022-08-19T06:49:22;21.38;;;13.60;;
46835;SDS011;32573;51.290;6.926;2022-08-19T06:51:53;20.42;;;13.57;;
46835;SDS011;32573;51.290;6.926;2022-08-19T06:54:24;22.30;;;13.88;;
46835;SDS011;32573;51.290;6.926;2022-08-19T06:56:56;22.65;;;13.88;;
46835;SDS011;32573;51.290;6.926;2022-08-19T06:59:27;22.38;;;14.30;;
46835;SDS011;32573;51.290;6.926;2022-08-19T07:02:00;20.80;;;13.80;;
46835;SDS011;32573;51.290;6.926;2022-08-19T07:04:32;24.83;;;15.18;;
46835;SDS011;32573;51.290;6.926;2022-08-19T07:07:03;21.10;;;13.57;;
46835;SDS011;32573;51.290;6.926;2022-08-19T07:09:47;19.95;;;13.32;;
46835;SDS011;32573;51.290;6.926;2022-08-19T07:12:27;20.13;;;13.43;;
46835;SDS011;32573;51.290;6.926;2022-08-19T07:15:01;19.58;;;13.25;;
46835;SDS011;32573;51.290;6.926;2022-08-19T07:17:31;31.38;;;18.52;;
46835;SDS011;32573;51.290;6.926;2022-08-19T07:20:03;31.85;;;20.13;;
46835;SDS011;32573;51.290;6.926;2022-08-19T07:25:05;30.15;;;18.17;;
46835;SDS011;32573;51.290;6.926;2022-08-19T07:27:35;36.33;;;22.10;;
46835;SDS011;32573;51.290;6.926;2022-08-19T07:30:06;39.92;;;23.27;;
46835;SDS011;32573;51.290;6.926;2022-08-19T07:32:38;40.35;;;23.92;;
46835;SDS011;32573;51.290;6.926;2022-08-19T07:35:09;34.03;;;21.08;;
46835;SDS011;32573;51.290;6.926;2022-08-19T07:37:37;32.25;;;20.00;;
46835;SDS011;32573;51.290;6.926;2022-08-19T07:40:11;30.55;;;18.88;;
46835;SDS011;32573;51.290;6.926;2022-08-19T07:42:40;37.13;;;20.23;;
46835;SDS011;32573;51.290;6.926;2022-08-19T07:45:09;44.60;;;24.85;;
46835;SDS011;32573;51.290;6.926;2022-08-19T07:47:37;33.13;;;21.08;;
46835;SDS011;32573;51.290;6.926;2022-08-19T07:50:26;32.63;;;19.10;;
46835;SDS011;32573;51.290;6.926;2022-08-19T07:52:54;35.67;;;20.20;;
46835;SDS011;32573;51.290;6.926;2022-08-19T07:55:24;34.40;;;19.95;;
46835;SDS011;32573;51.290;6.926;2022-08-19T07:58:09;33.05;;;19.27;;
46835;SDS011;32573;51.290;6.926;2022-08-19T08:00:39;31.08;;;17.92;;
46835;SDS011;32573;51.290;6.926;2022-08-19T08:03:08;31.00;;;17.83;;
46835;SDS011;32573;51.290;6.926;2022-08-19T08:05:38;25.48;;;15.73;;
46835;SDS011;32573;51.290;6.926;2022-08-19T08:08:24;30.40;;;18.25;;
46835;SDS011;32573;51.290;6.926;2022-08-19T08:11:14;24.65;;;14.93;;
46835;SDS011;32573;51.290;6.926;2022-08-19T08:13:47;32.25;;;19.48;;
46835;SDS011;32573;51.290;6.926;2022-08-19T08:16:30;29.17;;;18.10;;
46835;SDS011;32573;51.290;6.926;2022-08-19T08:19:13;24.88;;;15.57;;
46835;SDS011;32573;51.290;6.926;2022-08-19T08:21:53;24.42;;;14.23;;
46835;SDS011;32573;51.290;6.926;2022-08-19T08:24:23;21.42;;;14.23;;
46835;SDS011;32573;51.290;6.926;2022-08-19T08:26:55;28.42;;;16.80;;
46835;SDS011;32573;51.290;6.926;2022-08-19T08:29:25;25.67;;;14.55;;
46835;SDS011;32573;51.290;6.926;2022-08-19T08:32:01;27.77;;;17.13;;
46835;SDS011;32573;51.290;6.926;2022-08-19T08:34:40;27.90;;;16.02;;
46835;SDS011;32573;51.290;6.926;2022-08-19T08:37:11;23.67;;;14.73;;
46835;SDS011;32573;51.290;6.926;2022-08-19T08:39:42;26.40;;;15.55;;
46835;SDS011;32573;51.290;6.926;2022-08-19T08:42:12;24.92;;;14.98;;
46835;SDS011;32573;51.290;6.926;2022-08-19T08:44:50;20.30;;;12.85;;
46835;SDS011;32573;51.290;6.926;2022-08-19T08:47:26;24.80;;;14.48;;
46835;SDS011;32573;51.290;6.926;2022-08-19T08:52:32;25.85;;;14.75;;
46835;SDS011;32573;51.290;6.926;2022-08-19T08:55:06;26.77;;;15.48;;
46835;SDS011;32573;51.290;6.926;2022-08-19T08:57:38;26.95;;;15.65;;
46835;SDS011;32573;51.290;6.926;2022-08-19T09:00:15;34.03;;;19.48;;
46835;SDS011;32573;51.290;6.926;2022-08-19T09:02:45;25.58;;;15.20;;
46835;SDS011;32573;51.290;6.926;2022-08-19T09:05:17;28.23;;;16.55;;
46835;SDS011;32573;51.290;6.926;2022-08-19T09:07:53;22.75;;;13.45;;
46835;SDS011;32573;51.290;6.926;2022-08-19T09:10:30;28.70;;;15.82;;
46835;SDS011;32573;51.290;6.926;2022-08-19T09:13:12;25.35;;;15.43;;
46835;SDS011;32573;51.290;6.926;2022-08-19T09:15:51;20.83;;;12.90;;
46835;SDS011;32573;51.290;6.926;2022-08-19T09:18:22;29.60;;;16.75;;
46835;SDS011;32573;51.290;6.926;2022-08-19T09:20:55;28.08;;;16.15;;
46835;SDS011;32573;51.290;6.926;2022-08-19T09:23:25;28.67;;;16.90;;
46835;SDS011;32573;51.290;6.926;2022-08-19T09:25:53;29.13;;;17.58;;
46835;SDS011;32573;51.290;6.926;2022-08-19T09:28:24;31.17;;;19.15;;
46835;SDS011;32573;51.290;6.926;2022-08-19T09:30:53;31.73;;;17.40;;
46835;SDS011;32573;51.290;6.926;2022-08-19T09:33:21;27.92;;;16.23;;
46835;SDS011;32573;51.290;6.926;2022-08-19T09:35:50;24.48;;;15.27;;
46835;SDS011;32573;51.290;6.926;2022-08-19T09:38:36;20.95;;;13.15;;
46835;SDS011;32573;51.290;6.926;2022-08-19T09:41:10;20.17;;;11.95;;
46835;SDS011;32573;51.290;6.926;2022-08-19T09:43:41;18.25;;;11.43;;
46835;SDS011;32573;51.290;6.926;2022-08-19T09:46:13;14.20;;;9.30;;
46835;SDS011;32573;51.290;6.926;2022-08-19T09:48:44;13.05;;;8.82;;
46835;SDS011;32573;51.290;6.926;2022-08-19T09:51:18;18.80;;;11.68;;
46835;SDS011;32573;51.290;6.926;2022-08-19T09:53:50;15.80;;;9.90;;
46835;SDS011;32573;51.290;6.926;2022-08-19T09:56:21;14.90;;;10.20;;
46835;SDS011;32573;51.290;6.926;2022-08-19T09:58:50;18.38;;;11.15;;
46835;SDS011;32573;51.290;6.926;2022-08-19T10:01:19;18.58;;;11.85;;
46835;SDS011;32573;51.290;6.926;2022-08-19T10:03:50;18.73;;;12.02;;
46835;SDS011;32573;51.290;6.926;2022-08-19T10:06:21;24.45;;;14.90;;
46835;SDS011;32573;51.290;6.926;2022-08-19T10:09:12;22.08;;;12.93;;
46835;SDS011;32573;51.290;6.926;2022-08-19T10:11:52;20.58;;;12.55;;
46835;SDS011;32573;51.290;6.926;2022-08-19T10:14:21;19.00;;;11.50;;
46835;SDS011;32573;51.290;6.926;2022-08-19T10:16:50;20.10;;;12.30;;
46835;SDS011;32573;51.290;6.926;2022-08-19T10:19:19;18.73;;;11.68;;
46835;SDS011;32573;51.290;6.926;2022-08-19T10:21:52;18.67;;;12.55;;
46835;SDS011;32573;51.290;6.926;2022-08-19T10:26:57;18.65;;;12.30;;
46835;SDS011;32573;51.290;6.926;2022-08-19T10:29:26;23.60;;;13.98;;
46835;SDS011;32573;51.290;6.926;2022-08-19T10:31:59;20.23;;;13.13;;
46835;SDS011;32573;51.290;6.926;2022-08-19T10:34:29;16.15;;;10.93;;
46835;SDS011;32573;51.290;6.926;2022-08-19T10:36:58;21.55;;;13.18;;
46835;SDS011;32573;51.290;6.926;2022-08-19T10:39:30;21.27;;;13.80;;
46835;SDS011;32573;51.290;6.926;2022-08-19T10:42:09;21.80;;;13.93;;
46835;SDS011;32573;51.290;6.926;2022-08-19T10:44:39;17.88;;;12.18;;
46835;SDS011;32573;51.290;6.926;2022-08-19T10:47:08;14.82;;;10.05;;
46835;SDS011;32573;51.290;6.926;2022-08-19T10:49:51;14.05;;;9.35;;
46835;SDS011;32573;51.290;6.926;2022-08-19T10:52:38;22.40;;;14.30;;
46835;SDS011;32573;51.290;6.926;2022-08-19T10:55:18;16.63;;;10.55;;
46835;SDS011;32573;51.290;6.926;2022-08-19T10:58:09;22.33;;;14.02;;
46835;SDS011;32573;51.290;6.926;2022-08-19T11:03:09;20.15;;;13.55;;
46835;SDS011;32573;51.290;6.926;2022-08-19T11:05:37;17.17;;;11.45;;
46835;SDS011;32573;51.290;6.926;2022-08-19T11:08:06;16.63;;;10.93;;
46835;SDS011;32573;51.290;6.926;2022-08-19T11:10:52;15.05;;;9.85;;
46835;SDS011;32573;51.290;6.926;2022-08-19T11:13:23;12.60;;;8.80;;
46835;SDS011;32573;51.290;6.926;2022-08-19T11:15:58;14.40;;;9.50;;
46835;SDS011;32573;51.290;6.926;2022-08-19T11:18:34;15.43;;;11.25;;
46835;SDS011;32573;51.290;6.926;2022-08-19T11:21:11;13.23;;;9.00;;
46835;SDS011;32573;51.290;6.926;2022-08-19T11:23:43;11.85;;;8.30;;
46835;SDS011;32573;51.290;6.926;2022-08-19T11:26:14;14.02;;;9.93;;
46835;SDS011;32573;51.290;6.926;2022-08-19T11:28:44;10.95;;;7.10;;
46835;SDS011;32573;51.290;6.926;2022-08-19T11:31:13;10.25;;;7.13;;
46835;SDS011;32573;51.290;6.926;2022-08-19T11:33:44;11.32;;;7.80;;
46835;SDS011;32573;51.290;6.926;2022-08-19T11:36:13;11.45;;;7.68;;
46835;SDS011;32573;51.290;6.926;2022-08-19T11:38:42;10.15;;;6.93;;
46835;SDS011;32573;51.290;6.926;2022-08-19T11:41:11;11.63;;;7.97;;
46835;SDS011;32573;51.290;6.926;2022-08-19T11:43:41;11.20;;;7.22;;
46835;SDS011;32573;51.290;6.926;2022-08-19T11:46:10;10.13;;;6.78;;
46835;SDS011;32573;51.290;6.926;2022-08-19T11:48:40;10.20;;;7.05;;
46835;SDS011;32573;51.290;6.926;2022-08-19T11:51:09;10.07;;;6.50;;
46835;SDS011;32573;51.290;6.926;2022-08-19T11:53:40;8.45;;;5.90;;
46835;SDS011;32573;51.290;6.926;2022-08-19T11:56:09;8.70;;;6.18;;
46835;SDS011;32573;51.290;6.926;2022-08-19T11:58:38;9.45;;;6.10;;
46835;SDS011;32573;51.290;6.926;2022-08-19T12:01:10;9.07;;;6.70;;
46835;SDS011;32573;51.290;6.926;2022-08-19T12:03:40;9.05;;;6.60;;
46835;SDS011;32573;51.290;6.926;2022-08-19T12:06:11;11.30;;;6.38;;
46835;SDS011;32573;51.290;6.926;2022-08-19T12:08:43;9.60;;;6.30;;
46835;SDS011;32573;51.290;6.926;2022-08-19T12:11:12;7.75;;;5.43;;
46835;SDS011;32573;51.290;6.926;2022-08-19T12:13:41;8.70;;;6.10;;
46835;SDS011;32573;51.290;6.926;2022-08-19T12:16:14;9.38;;;6.07;;
46835;SDS011;32573;51.290;6.926;2022-08-19T12:18:44;9.00;;;6.30;;
46835;SDS011;32573;51.290;6.926;2022-08-19T12:21:13;8.60;;;5.93;;
46835;SDS011;32573;51.290;6.926;2022-08-19T12:23:43;9.93;;;6.38;;
46835;SDS011;32573;51.290;6.926;2022-08-19T12:26:13;9.45;;;6.25;;
46835;SDS011;32573;51.290;6.926;2022-08-19T12:28:41;7.90;;;5.68;;
46835;SDS011;32573;51.290;6.926;2022-08-19T12:31:10;9.48;;;6.50;;
46835;SDS011;32573;51.290;6.926;2022-08-19T12:33:41;9.90;;;6.22;;
46835;SDS011;32573;51.290;6.926;2022-08-19T12:36:10;7.97;;;5.28;;
46835;SDS011;32573;51.290;6.926;2022-08-19T12:38:41;9.30;;;5.85;;
46835;SDS011;32573;51.290;6.926;2022-08-19T12:41:11;8.93;;;5.30;;
46835;SDS011;32573;51.290;6.926;2022-08-19T12:43:44;8.35;;;5.43;;
46835;SDS011;32573;51.290;6.926;2022-08-19T12:46:16;7.63;;;4.93;;
46835;SDS011;32573;51.290;6.926;2022-08-19T12:48:53;8.68;;;5.80;;
46835;SDS011;32573;51.290;6.926;2022-08-19T12:51:22;7.80;;;5.03;;
46835;SDS011;32573;51.290;6.926;2022-08-19T12:53:52;6.80;;;4.88;;
46835;SDS011;32573;51.290;6.926;2022-08-19T12:56:20;9.98;;;5.75;;
46835;SDS011;32573;51.290;6.926;2022-08-19T12:58:49;7.30;;;4.78;;
46835;SDS011;32573;51.290;6.926;2022-08-19T13:01:19;6.88;;;4.38;;
46835;SDS011;32573;51.290;6.926;2022-08-19T13:03:49;9.13;;;5.25;;
46835;SDS011;32573;51.290;6.926;2022-08-19T13:06:20;6.20;;;4.32;;
46835;SDS011;32573;51.290;6.926;2022-08-19T13:08:49;7.70;;;4.50;;
46835;SDS011;32573;51.290;6.926;2022-08-19T13:13:52;8.25;;;5.88;;
46835;SDS011;32573;51.290;6.926;2022-08-19T13:16:22;6.82;;;4.55;;
46835;SDS011;32573;51.290;6.926;2022-08-19T13:18:50;7.10;;;4.60;;
46835;SDS011;32573;51.290;6.926;2022-08-19T13:21:22;6.60;;;4.47;;
46835;SDS011;32573;51.290;6.926;2022-08-19T13:23:51;7.90;;;4.40;;
46835;SDS011;32573;51.290;6.926;2022-08-19T13:26:20;7.18;;;4.40;;
46835;SDS011;32573;51.290;6.926;2022-08-19T13:28:49;6.20;;;4.13;;
46835;SDS011;32573;51.290;6.926;2022-08-19T13:31:35;6.68;;;3.88;;
46835;SDS011;32573;51.290;6.926;2022-08-19T13:34:27;5.97;;;4.25;;
46835;SDS011;32573;51.290;6.926;2022-08-19T13:37:00;5.63;;;3.50;;
46835;SDS011;32573;51.290;6.926;2022-08-19T13:39:31;7.57;;;4.95;;
46835;SDS011;32573;51.290;6.926;2022-08-19T13:42:00;6.60;;;4.10;;
46835;SDS011;32573;51.290;6.926;2022-08-19T13:44:31;7.38;;;4.53;;
46835;SDS011;32573;51.290;6.926;2022-08-19T13:47:00;7.20;;;3.70;;
46835;SDS011;32573;51.290;6.926;2022-08-19T13:49:32;6.63;;;3.75;;
46835;SDS011;32573;51.290;6.926;2022-08-19T13:52:04;5.40;;;3.70;;
46835;SDS011;32573;51.290;6.926;2022-08-19T13:54:32;7.03;;;4.05;;
46835;SDS011;32573;51.290;6.926;2022-08-19T13:57:01;6.80;;;3.90;;
46835;SDS011;32573;51.290;6.926;2022-08-19T13:59:29;5.68;;;3.95;;
46835;SDS011;32573;51.290;6.926;2022-08-19T14:01:59;5.65;;;3.72;;
46835;SDS011;32573;51.290;6.926;2022-08-19T14:04:28;5.18;;;3.20;;
46835;SDS011;32573;51.290;6.926;2022-08-19T14:06:57;5.47;;;3.78;;
46835;SDS011;32573;51.290;6.926;2022-08-19T14:09:26;6.28;;;3.58;;
46835;SDS011;32573;51.290;6.926;2022-08-19T14:11:55;5.20;;;3.33;;
46835;SDS011;32573;51.290;6.926;2022-08-19T14:14:23;4.80;;;3.20;;
46835;SDS011;32573;51.290;6.926;2022-08-19T14:16:52;5.40;;;3.17;;
46835;SDS011;32573;51.290;6.926;2022-08-19T14:19:20;5.15;;;3.28;;
46835;SDS011;32573;51.290;6.926;2022-08-19T14:21:49;4.85;;;3.38;;
46835;SDS011;32573;51.290;6.926;2022-08-19T14:24:18;5.60;;;3.22;;
46835;SDS011;32573;51.290;6.926;2022-08-19T14:26:48;5.40;;;3.20;;
46835;SDS011;32573;51.290;6.926;2022-08-19T14:29:16;5.38;;;3.08;;
46835;SDS011;32573;51.290;6.926;2022-08-19T14:31:45;5.38;;;3.20;;
46835;SDS011;32573;51.290;6.926;2022-08-19T14:34:13;5.07;;;3.13;;
46835;SDS011;32573;51.290;6.926;2022-08-19T14:36:42;5.10;;;3.15;;
46835;SDS011;32573;51.290;6.926;2022-08-19T14:39:11;5.40;;;3.42;;
46835;SDS011;32573;51.290;6.926;2022-08-19T14:41:40;4.45;;;2.83;;
46835;SDS011;32573;51.290;6.926;2022-08-19T14:44:11;5.07;;;2.95;;
46835;SDS011;32573;51.290;6.926;2022-08-19T14:46:40;5.68;;;3.10;;
46835;SDS011;32573;51.290;6.926;2022-08-19T14:49:15;4.43;;;2.90;;
46835;SDS011;32573;51.290;6.926;2022-08-19T14:51:45;5.82;;;3.63;;
46835;SDS011;32573;51.290;6.926;2022-08-19T14:54:14;6.68;;;3.72;;
46835;SDS011;32573;51.290;6.926;2022-08-19T14:56:43;5.72;;;3.50;;
46835;SDS011;32573;51.290;6.926;2022-08-19T14:59:13;7.32;;;3.90;;
46835;SDS011;32573;51.290;6.926;2022-08-19T15:01:41;5.07;;;3.20;;
46835;SDS011;32573;51.290;6.926;2022-08-19T15:04:10;4.97;;;3.40;;
46835;SDS011;32573;51.290;6.926;2022-08-19T15:06:38;5.47;;;2.90;;
46835;SDS011;32573;51.290;6.926;2022-08-19T15:09:09;7.85;;;3.25;;
46835;SDS011;32573;51.290;6.926;2022-08-19T15:11:38;5.30;;;3.10;;
46835;SDS011;32573;51.290;6.926;2022-08-19T15:14:06;5.47;;;3.72;;
46835;SDS011;32573;51.290;6.926;2022-08-19T15:16:38;5.15;;;3.40;;
46835;SDS011;32573;51.290;6.926;2022-08-19T15:19:08;5.57;;;3.40;;